Time;durP1;ratioP1;P1;durP2;ratioP2;P2;SDS_P1;SDS_P2;PMS_P1;PMS_P2;Temp;Humidity;BMP_temperature;BMP_pressure;BME280_temperature;BME280_humidity;BME280_pressure;Samples;Min_cycle;Max_cycle;Signal;HPM_P1;HPM_P2
2023/10/11 00:00:33;;;;;;;10.23;4.73;;;19.90;68.00;;;;;;5073347;28;20518;-57
2023/10/11 00:03:05;;;;;;;11.00;4.77;;;19.80;68.60;;;;;;5074514;28;20473;-57
2023/10/11 00:05:40;;;;;;;8.83;4.63;;;19.80;68.70;;;;;;5073647;28;20780;-57
2023/10/11 00:08:09;;;;;;;12.50;4.80;;;19.70;68.60;;;;;;5073369;28;20968;-57
2023/10/11 00:10:42;;;;;;;11.97;5.13;;;19.70;68.80;;;;;;5072296;28;20537;-57
2023/10/11 00:13:11;;;;;;;9.03;4.07;;;19.70;69.00;;;;;;5073422;28;20495;-56
2023/10/11 00:15:38;;;;;;;19.63;4.90;;;19.70;69.40;;;;;;5073467;28;20448;-57
2023/10/11 00:18:05;;;;;;;9.37;4.50;;;19.60;69.20;;;;;;5073187;28;20829;-57
2023/10/11 00:20:47;;;;;;;11.00;5.00;;;19.50;69.50;;;;;;5073347;28;20468;-57
2023/10/11 00:23:17;;;;;;;9.53;5.10;;;19.60;69.70;;;;;;5073383;28;20486;-57
2023/10/11 00:25:44;;;;;;;8.83;5.20;;;19.50;69.90;;;;;;5073346;28;20450;-57
2023/10/11 00:28:14;;;;;;;7.90;4.93;;;19.50;70.10;;;;;;5073359;28;20448;-57
2023/10/11 00:30:43;;;;;;;11.33;5.43;;;19.50;70.60;;;;;;5073424;28;20495;-56
2023/10/11 00:33:10;;;;;;;9.67;4.93;;;19.40;70.50;;;;;;5073249;28;20896;-57
2023/10/11 00:35:44;;;;;;;7.00;5.57;;;19.40;70.60;;;;;;5073056;28;20869;-57
2023/10/11 00:38:12;;;;;;;12.83;5.30;;;19.40;70.90;;;;;;5073180;28;20434;-56
2023/10/11 00:40:43;;;;;;;9.93;5.93;;;19.40;71.10;;;;;;5072842;28;20475;-57
2023/10/11 00:43:14;;;;;;;11.40;4.60;;;19.30;71.30;;;;;;5072908;28;20447;-56
2023/10/11 00:45:43;;;;;;;7.50;4.93;;;19.30;71.90;;;;;;5073248;28;20420;-57
2023/10/11 00:48:12;;;;;;;7.93;4.80;;;19.20;72.20;;;;;;5073193;28;20453;-57
2023/10/11 00:50:39;;;;;;;9.30;5.20;;;19.20;72.50;;;;;;5072982;28;20488;-57
2023/10/11 00:53:09;;;;;;;12.70;5.83;;;19.20;72.70;;;;;;5073065;28;20445;-57
2023/10/11 00:55:36;;;;;;;7.47;4.83;;;19.20;72.90;;;;;;5073125;28;20491;-57
2023/10/11 00:58:05;;;;;;;16.50;5.60;;;19.10;73.10;;;;;;5072761;28;20957;-57
2023/10/11 01:00:36;;;;;;;10.07;4.83;;;19.10;73.50;;;;;;5073764;28;20484;-57
2023/10/11 01:03:05;;;;;;;11.63;4.83;;;19.10;73.70;;;;;;5072619;28;21042;-56
2023/10/11 01:05:33;;;;;;;7.63;4.70;;;19.20;74.10;;;;;;5072947;28;20452;-57
2023/10/11 01:08:00;;;;;;;10.67;5.00;;;19.20;74.40;;;;;;5072945;28;20444;-57
2023/10/11 01:10:29;;;;;;;10.47;5.40;;;19.20;74.70;;;;;;5072317;28;20491;-57
2023/10/11 01:12:57;;;;;;;7.70;4.60;;;19.10;74.40;;;;;;5072964;28;20448;-57
2023/10/11 01:15:25;;;;;;;9.43;5.10;;;19.20;74.90;;;;;;5072709;28;20447;-57
2023/10/11 01:17:53;;;;;;;10.50;5.00;;;19.10;75.00;;;;;;5072535;28;20945;-57
2023/10/11 01:20:21;;;;;;;13.87;5.60;;;19.10;75.10;;;;;;5073071;28;20465;-57
2023/10/11 01:22:49;;;;;;;17.40;5.20;;;19.10;75.00;;;;;;5076311;28;20791;-57
2023/10/11 01:25:18;;;;;;;10.63;6.40;;;19.10;75.50;;;;;;5076534;28;20436;-57
2023/10/11 01:27:45;;;;;;;12.10;5.33;;;19.10;75.80;;;;;;5076567;28;20449;-57
2023/10/11 01:30:12;;;;;;;12.40;5.67;;;19.10;76.00;;;;;;5076364;28;20484;-56
2023/10/11 01:32:41;;;;;;;9.73;5.30;;;19.10;76.10;;;;;;5076078;28;20445;-56
2023/10/11 01:35:10;;;;;;;10.63;5.90;;;19.10;76.10;;;;;;5076089;28;21028;-57
2023/10/11 01:37:41;;;;;;;11.90;4.83;;;19.10;76.10;;;;;;5076075;28;20543;-57
2023/10/11 01:40:11;;;;;;;11.87;5.77;;;19.20;76.60;;;;;;5076301;28;20461;-57
2023/10/11 01:42:40;;;;;;;16.93;6.07;;;19.10;76.00;;;;;;5076718;28;20432;-57
2023/10/11 01:45:08;;;;;;;16.33;5.67;;;19.10;76.30;;;;;;5076202;28;20444;-56
2023/10/11 01:47:34;;;;;;;14.70;5.27;;;19.20;76.30;;;;;;5075907;28;21071;-57
2023/10/11 01:50:01;;;;;;;18.43;6.70;;;19.20;76.70;;;;;;5076056;28;20860;-57
2023/10/11 01:52:28;;;;;;;12.77;6.00;;;19.20;77.20;;;;;;5075746;28;20987;-57
2023/10/11 01:54:56;;;;;;;16.33;6.10;;;19.20;77.30;;;;;;5076097;28;20448;-57
2023/10/11 01:57:25;;;;;;;16.43;5.30;;;19.20;77.30;;;;;;5076051;28;20506;-57
2023/10/11 01:59:52;;;;;;;9.63;5.90;;;19.20;77.40;;;;;;5076517;28;20464;-57
2023/10/11 02:02:24;;;;;;;14.10;5.10;;;19.10;77.20;;;;;;5075871;28;20861;-56
2023/10/11 02:04:51;;;;;;;10.20;5.30;;;19.10;77.20;;;;;;5075911;28;20461;-57
2023/10/11 02:07:18;;;;;;;12.10;5.60;;;19.10;77.20;;;;;;5075881;28;20448;-57
2023/10/11 02:09:44;;;;;;;11.53;5.57;;;19.10;77.70;;;;;;5075525;28;20521;-57
2023/10/11 02:12:11;;;;;;;13.33;5.67;;;19.10;77.70;;;;;;5075751;28;20453;-56
2023/10/11 02:14:40;;;;;;;13.67;6.07;;;19.10;77.40;;;;;;5075609;28;20445;-56
2023/10/11 02:17:07;;;;;;;12.67;6.30;;;19.10;77.60;;;;;;5075716;28;20550;-56
2023/10/11 02:19:34;;;;;;;13.40;6.57;;;19.10;78.00;;;;;;5075573;28;20464;-57
2023/10/11 02:22:01;;;;;;;16.10;6.93;;;19.10;78.00;;;;;;5075660;28;20787;-57
2023/10/11 02:24:28;;;;;;;15.37;5.90;;;19.10;78.00;;;;;;5075191;28;21000;-57
2023/10/11 02:26:55;;;;;;;11.33;6.00;;;19.10;77.80;;;;;;5075500;28;20444;-57
2023/10/11 02:29:23;;;;;;;9.60;5.50;;;19.10;77.50;;;;;;5075298;28;20448;-57
2023/10/11 02:31:53;;;;;;;10.93;5.47;;;19.10;77.80;;;;;;5074948;28;20444;-57
2023/10/11 02:34:19;;;;;;;9.43;5.70;;;19.00;77.70;;;;;;5074861;28;20465;-57
2023/10/11 02:36:56;;;;;;;11.20;5.07;;;19.00;78.00;;;;;;5075005;28;20977;-57
2023/10/11 02:39:31;;;;;;;17.60;7.00;;;19.00;78.30;;;;;;5075226;28;20433;-56
2023/10/11 02:41:58;;;;;;;9.90;5.13;;;18.90;77.90;;;;;;5075250;28;20507;-57
2023/10/11 02:44:25;;;;;;;10.70;5.67;;;18.90;78.40;;;;;;5074747;28;20502;-57
2023/10/11 02:46:53;;;;;;;10.13;5.53;;;18.90;78.70;;;;;;5074852;28;20965;-57
2023/10/11 02:49:20;;;;;;;10.00;5.90;;;18.90;78.00;;;;;;5074542;28;20848;-57
2023/10/11 02:51:52;;;;;;;7.00;5.30;;;18.90;77.80;;;;;;5075729;28;20938;-57
2023/10/11 02:54:20;;;;;;;12.03;6.30;;;18.90;78.10;;;;;;5095097;28;20432;-57
2023/10/11 02:56:52;;;;;;;8.47;5.73;;;18.90;77.70;;;;;;5094808;28;20455;-57
2023/10/11 02:59:22;;;;;;;11.07;5.73;;;18.90;78.10;;;;;;5094784;28;20515;-57
2023/10/11 03:01:59;;;;;;;12.07;6.13;;;18.90;77.60;;;;;;5095109;28;20456;-57
2023/10/11 03:04:29;;;;;;;12.07;5.50;;;18.80;77.50;;;;;;5094700;28;20423;-57
2023/10/11 03:06:56;;;;;;;9.80;5.40;;;18.80;77.50;;;;;;5095068;28;20440;-57
2023/10/11 03:09:26;;;;;;;14.47;5.30;;;18.80;77.90;;;;;;5094484;28;20456;-57
2023/10/11 03:11:56;;;;;;;19.20;6.17;;;18.80;77.80;;;;;;5094721;28;20428;-56
2023/10/11 03:14:24;;;;;;;20.53;6.50;;;18.80;78.10;;;;;;5094768;28;20439;-57
2023/10/11 03:16:57;;;;;;;12.63;5.90;;;18.70;78.00;;;;;;5094439;28;20885;-57
2023/10/11 03:19:24;;;;;;;9.03;5.40;;;18.70;78.50;;;;;;5094677;28;20424;-57
2023/10/11 03:21:54;;;;;;;6.60;5.33;;;18.70;78.30;;;;;;5094721;28;20471;-57
2023/10/11 03:24:21;;;;;;;10.83;5.43;;;18.70;78.30;;;;;;5094621;28;20447;-57
2023/10/11 03:26:51;;;;;;;13.00;4.73;;;18.70;78.70;;;;;;5094323;28;20444;-57
2023/10/11 03:29:21;;;;;;;11.47;5.63;;;18.70;78.80;;;;;;5095262;28;20439;-57
2023/10/11 03:31:49;;;;;;;10.87;5.43;;;18.70;78.70;;;;;;5094676;28;20472;-57
2023/10/11 03:34:17;;;;;;;14.40;4.83;;;18.60;78.50;;;;;;5094340;28;20440;-57
2023/10/11 03:36:49;;;;;;;10.50;4.97;;;18.60;78.00;;;;;;5094365;28;20444;-57
2023/10/11 03:39:27;;;;;;;8.07;4.73;;;18.50;77.60;;;;;;5094292;28;20428;-57
2023/10/11 03:42:05;;;;;;;9.37;5.00;;;18.50;77.30;;;;;;5094297;28;20519;-57
2023/10/11 03:44:35;;;;;;;8.70;5.17;;;18.50;77.60;;;;;;5094241;28;20424;-56
2023/10/11 03:47:05;;;;;;;8.70;5.80;;;18.50;77.30;;;;;;5094166;28;20447;-57
2023/10/11 03:49:50;;;;;;;8.23;4.77;;;18.50;77.30;;;;;;5093812;28;20884;-57
2023/10/11 03:52:20;;;;;;;7.90;5.57;;;18.50;77.20;;;;;;5093863;28;20416;-57
2023/10/11 03:54:53;;;;;;;10.77;6.30;;;18.50;76.70;;;;;;5094106;28;20427;-57
2023/10/11 03:57:20;;;;;;;9.13;5.80;;;18.50;76.70;;;;;;5094109;28;20429;-57
2023/10/11 03:59:51;;;;;;;14.37;5.00;;;18.50;77.30;;;;;;5094043;28;20464;-57
2023/10/11 04:02:19;;;;;;;15.60;5.10;;;18.50;77.00;;;;;;5093659;28;20795;-57
2023/10/11 04:04:48;;;;;;;7.13;5.27;;;18.50;76.90;;;;;;5093609;28;20820;-57
2023/10/11 04:07:16;;;;;;;9.10;4.87;;;18.40;76.40;;;;;;5093833;28;20444;-57
2023/10/11 04:09:46;;;;;;;9.00;4.83;;;18.40;76.60;;;;;;5093273;28;20482;-57
2023/10/11 04:12:14;;;;;;;9.30;5.20;;;18.40;77.00;;;;;;5093852;28;20448;-57
2023/10/11 04:14:44;;;;;;;10.70;5.00;;;18.40;77.10;;;;;;5093352;28;20458;-57
2023/10/11 04:17:25;;;;;;;12.50;4.97;;;18.50;77.20;;;;;;5093829;28;20445;-57
2023/10/11 04:19:55;;;;;;;12.90;5.83;;;18.40;77.10;;;;;;5093676;28;20810;-57
2023/10/11 04:22:24;;;;;;;9.03;4.40;;;18.40;77.10;;;;;;5093657;28;20471;-57
2023/10/11 04:24:53;;;;;;;8.33;4.30;;;18.40;76.80;;;;;;5093337;28;20444;-57
2023/10/11 04:30:23;;;;;;;12.53;5.20;;;18.40;76.70;;;;;;5093122;28;20517;-57
2023/10/11 04:32:52;;;;;;;7.67;4.60;;;18.40;76.50;;;;;;5093430;28;20508;-57
2023/10/11 04:35:22;;;;;;;9.53;5.10;;;18.40;76.10;;;;;;5093487;28;20454;-57
2023/10/11 04:37:55;;;;;;;12.23;5.00;;;18.40;75.90;;;;;;5093484;28;20474;-57
2023/10/11 04:40:38;;;;;;;16.50;5.60;;;18.40;76.80;;;;;;5093455;28;20464;-57
2023/10/11 04:43:20;;;;;;;11.30;5.90;;;18.40;77.30;;;;;;5093502;28;20460;-57
2023/10/11 04:45:47;;;;;;;10.30;5.33;;;18.30;77.60;;;;;;5093566;28;20481;-56
2023/10/11 04:48:15;;;;;;;13.27;6.20;;;18.20;77.90;;;;;;5093504;28;20440;-56
2023/10/11 04:50:47;;;;;;;18.97;5.93;;;18.20;77.90;;;;;;5093191;28;20483;-57
2023/10/11 04:53:18;;;;;;;17.27;6.20;;;18.10;78.20;;;;;;5093701;28;20428;-57
2023/10/11 04:55:47;;;;;;;10.20;6.33;;;18.10;78.90;;;;;;5094463;28;20432;-57
2023/10/11 04:58:40;;;;;;;14.50;5.73;;;18.00;79.40;;;;;;5097394;28;20447;-57
2023/10/11 05:01:08;;;;;;;10.70;5.47;;;17.90;79.40;;;;;;5097396;28;20464;-57
2023/10/11 05:03:37;;;;;;;15.13;6.10;;;17.90;80.00;;;;;;5097314;28;20879;-57
2023/10/11 05:06:12;;;;;;;16.90;6.80;;;17.90;80.30;;;;;;5097227;28;20466;-57
2023/10/11 05:08:54;;;;;;;12.00;6.10;;;17.90;79.70;;;;;;5097081;28;20513;-57
2023/10/11 05:11:32;;;;;;;17.53;5.20;;;17.90;79.50;;;;;;5096771;28;20997;-57
2023/10/11 05:14:07;;;;;;;11.37;5.40;;;17.90;79.50;;;;;;5097141;28;20431;-56
2023/10/11 05:16:37;;;;;;;10.00;4.90;;;17.90;79.60;;;;;;5097144;28;20424;-57
2023/10/11 05:19:05;;;;;;;11.43;4.80;;;17.90;79.20;;;;;;5097114;28;20428;-57
2023/10/11 05:21:38;;;;;;;12.23;5.90;;;17.90;78.70;;;;;;5097020;28;20452;-57
2023/10/11 05:24:27;;;;;;;10.40;5.27;;;17.90;78.80;;;;;;5096714;28;20930;-57
2023/10/11 05:27:03;;;;;;;11.80;5.00;;;17.90;79.20;;;;;;5096946;28;20425;-57
2023/10/11 05:29:36;;;;;;;9.87;5.40;;;17.90;79.90;;;;;;5096759;28;20510;-57
2023/10/11 05:34:50;;;;;;;9.80;5.50;;;17.90;79.60;;;;;;5094143;28;20431;-57
2023/10/11 05:51:20;;;;;;;14.47;5.30;;;17.80;79.90;;;;;;5096216;28;20620;-57
2023/10/11 05:53:49;;;;;;;21.63;5.60;;;17.80;80.10;;;;;;5096182;28;20817;-56
2023/10/11 05:56:20;;;;;;;13.30;4.50;;;17.80;80.20;;;;;;5096314;28;20454;-56
2023/10/11 05:58:49;;;;;;;14.33;4.97;;;17.80;79.60;;;;;;5096360;28;20428;-56
2023/10/11 06:01:17;;;;;;;12.63;4.87;;;17.90;79.00;;;;;;5095902;28;20464;-56
2023/10/11 06:03:44;;;;;;;16.63;5.17;;;17.80;78.10;;;;;;5096219;28;20518;-56
2023/10/11 06:06:23;;;;;;;14.87;4.73;;;17.90;78.30;;;;;;5096184;28;20486;-56
2023/10/11 06:08:51;;;;;;;13.90;4.37;;;17.90;78.40;;;;;;5094600;28;20495;-57
2023/10/11 06:11:18;;;;;;;11.20;4.27;;;17.90;77.80;;;;;;5095961;28;20526;-57
2023/10/11 06:13:45;;;;;;;14.90;5.93;;;17.90;77.40;;;;;;5095969;28;20448;-57
2023/10/11 06:16:13;;;;;;;8.07;4.50;;;17.90;77.60;;;;;;5096017;28;20900;-57
2023/10/11 06:18:43;;;;;;;8.63;4.17;;;18.00;77.70;;;;;;5096478;28;20443;-57
2023/10/11 06:21:24;;;;;;;9.67;4.47;;;18.00;77.20;;;;;;5095861;28;20879;-57
2023/10/11 06:23:53;;;;;;;15.87;4.77;;;18.10;77.60;;;;;;5095847;28;20428;-57
2023/10/11 06:29:07;;;;;;;16.17;5.03;;;18.10;76.90;;;;;;5089633;28;21014;-57
2023/10/11 06:31:33;;;;;;;11.87;4.70;;;18.20;76.90;;;;;;5095578;28;20487;-57
2023/10/11 06:34:03;;;;;;;18.47;4.80;;;18.20;76.60;;;;;;5095943;28;20489;-57
2023/10/11 06:36:35;;;;;;;16.07;4.67;;;18.20;76.50;;;;;;5096285;28;20433;-57
2023/10/11 06:39:19;;;;;;;13.07;4.60;;;18.30;76.50;;;;;;5095583;28;20535;-57
2023/10/11 06:41:50;;;;;;;14.93;5.20;;;18.40;76.90;;;;;;5095621;28;20794;-57
2023/10/11 06:44:18;;;;;;;14.70;4.40;;;18.40;75.40;;;;;;5095455;28;20424;-57
2023/10/11 06:46:47;;;;;;;12.00;4.50;;;18.40;76.30;;;;;;5085969;28;20449;-56
2023/10/11 06:49:16;;;;;;;14.83;4.50;;;18.40;76.60;;;;;;5075190;28;20966;-56
2023/10/11 06:51:42;;;;;;;10.60;5.90;;;18.40;77.00;;;;;;5075178;28;20488;-57
2023/10/11 06:54:09;;;;;;;14.33;5.17;;;18.40;77.60;;;;;;5075097;28;20489;-57
2023/10/11 06:56:38;;;;;;;12.83;5.43;;;18.40;77.30;;;;;;5077022;28;20500;-56
2023/10/11 06:59:05;;;;;;;16.47;5.27;;;18.50;76.60;;;;;;5094711;28;20443;-56
2023/10/11 07:01:35;;;;;;;13.80;5.13;;;18.50;76.70;;;;;;5095141;28;20870;-56
2023/10/11 07:04:02;;;;;;;18.00;5.03;;;18.50;77.60;;;;;;5095050;28;20959;-57
2023/10/11 07:06:35;;;;;;;20.30;4.93;;;18.50;77.20;;;;;;5095449;28;20444;-57
2023/10/11 07:09:05;;;;;;;12.60;5.20;;;18.60;77.40;;;;;;5094606;28;20459;-57
2023/10/11 07:11:40;;;;;;;9.93;4.33;;;18.60;77.30;;;;;;5095036;28;20514;-57
2023/10/11 07:14:14;;;;;;;8.60;4.83;;;18.70;77.80;;;;;;5094791;28;20455;-56
2023/10/11 07:16:44;;;;;;;10.13;5.07;;;18.60;77.40;;;;;;5095071;28;20428;-56
2023/10/11 07:19:11;;;;;;;7.90;5.13;;;18.70;77.50;;;;;;5094110;28;20957;-57
2023/10/11 07:21:48;;;;;;;7.13;4.10;;;18.70;77.00;;;;;;5094685;28;20492;-57
2023/10/11 07:24:33;;;;;;;7.53;4.07;;;18.80;77.30;;;;;;5094663;28;20423;-57
2023/10/11 07:27:08;;;;;;;12.37;4.90;;;18.90;77.10;;;;;;5094378;28;20424;-57
2023/10/11 07:29:35;;;;;;;10.40;4.57;;;18.90;77.00;;;;;;5094558;28;20481;-57
2023/10/11 07:32:03;;;;;;;11.67;4.63;;;19.00;76.40;;;;;;5094174;28;20890;-57
2023/10/11 07:34:29;;;;;;;15.57;5.60;;;19.10;76.30;;;;;;5094547;28;20472;-57
2023/10/11 07:37:03;;;;;;;9.73;4.37;;;19.10;75.70;;;;;;5094452;28;20516;-57
2023/10/11 07:39:33;;;;;;;12.30;4.93;;;19.20;76.00;;;;;;5094382;28;20429;-57
2023/10/11 07:42:04;;;;;;;9.40;4.80;;;19.30;75.50;;;;;;5094307;28;20440;-57
2023/10/11 07:44:31;;;;;;;10.80;4.43;;;19.30;74.50;;;;;;5094293;28;20454;-56
2023/10/11 07:46:58;;;;;;;13.57;5.40;;;19.40;74.10;;;;;;5094257;28;20444;-57
2023/10/11 07:49:25;;;;;;;8.10;3.80;;;19.50;73.70;;;;;;5094128;28;20439;-56
2023/10/11 07:51:58;;;;;;;10.97;4.30;;;19.50;73.40;;;;;;5093771;28;21019;-56
2023/10/11 07:54:26;;;;;;;14.37;4.80;;;19.60;72.40;;;;;;5094175;28;20467;-57
2023/10/11 07:56:57;;;;;;;14.13;4.80;;;19.70;72.30;;;;;;5094835;28;20447;-57
2023/10/11 07:59:26;;;;;;;10.47;4.40;;;19.70;71.50;;;;;;5093945;28;20501;-57
2023/10/11 08:01:54;;;;;;;10.30;4.73;;;19.80;71.90;;;;;;5093641;28;20444;-57
2023/10/11 08:04:22;;;;;;;16.93;5.33;;;19.90;71.60;;;;;;5093932;28;20489;-57
2023/10/11 08:06:51;;;;;;;13.40;5.97;;;20.00;71.20;;;;;;5093616;28;20967;-57
2023/10/11 08:09:19;;;;;;;7.17;3.90;;;20.10;70.80;;;;;;5093502;28;20455;-56
2023/10/11 08:11:52;;;;;;;10.00;4.87;;;20.10;70.20;;;;;;5093761;28;20494;-57
2023/10/11 08:14:22;;;;;;;15.80;4.67;;;20.20;70.40;;;;;;5093802;28;20518;-57
2023/10/11 08:16:50;;;;;;;11.60;4.67;;;20.20;69.80;;;;;;5093420;28;20976;-57
2023/10/11 08:19:16;;;;;;;11.83;5.00;;;20.30;70.20;;;;;;5093690;28;20493;-57
2023/10/11 08:21:47;;;;;;;8.50;4.67;;;20.30;67.90;;;;;;5093686;28;20811;-57
2023/10/11 08:24:16;;;;;;;9.93;4.47;;;20.40;70.00;;;;;;5093672;28;20515;-58
2023/10/11 08:26:45;;;;;;;14.20;5.20;;;20.50;68.40;;;;;;5093658;28;20447;-57
2023/10/11 08:29:27;;;;;;;17.40;4.97;;;20.50;69.90;;;;;;5093549;28;20447;-57
2023/10/11 08:31:56;;;;;;;16.17;3.90;;;20.60;68.90;;;;;;5092787;28;20475;-57
2023/10/11 08:34:25;;;;;;;14.53;4.50;;;20.60;67.90;;;;;;5093485;28;20444;-57
2023/10/11 08:36:52;;;;;;;10.80;4.67;;;20.70;67.90;;;;;;5093791;28;20447;-58
2023/10/11 08:39:26;;;;;;;13.30;5.10;;;20.80;66.90;;;;;;5093422;28;20448;-57
2023/10/11 08:41:58;;;;;;;17.57;4.93;;;20.90;66.40;;;;;;5093540;28;20456;-58
2023/10/11 08:44:29;;;;;;;9.57;5.27;;;20.90;66.40;;;;;;5093522;28;20432;-58
2023/10/11 08:46:58;;;;;;;12.33;4.77;;;21.00;66.60;;;;;;5093545;28;20489;-58
2023/10/11 08:49:25;;;;;;;12.10;5.37;;;21.00;66.50;;;;;;5093427;28;20439;-58
2023/10/11 08:51:59;;;;;;;9.07;4.83;;;21.00;66.20;;;;;;5092966;28;21000;-57
2023/10/11 08:54:27;;;;;;;12.57;4.73;;;21.10;66.20;;;;;;5093370;28;20439;-57
2023/10/11 08:56:57;;;;;;;10.57;4.70;;;21.20;68.00;;;;;;5093384;28;20442;-57
2023/10/11 08:59:26;;;;;;;9.87;4.80;;;21.20;66.60;;;;;;5093517;28;20546;-58
2023/10/11 09:01:59;;;;;;;13.23;4.20;;;21.30;66.90;;;;;;5093242;28;20464;-58
2023/10/11 09:04:27;;;;;;;11.73;4.73;;;21.40;66.00;;;;;;5093072;28;20941;-58
2023/10/11 09:06:57;;;;;;;8.60;4.20;;;21.50;66.20;;;;;;5092961;28;20504;-58
2023/10/11 09:09:38;;;;;;;11.20;4.63;;;21.60;66.40;;;;;;5092924;28;20455;-58
2023/10/11 09:12:23;;;;;;;12.60;5.20;;;21.70;67.60;;;;;;5093182;28;20551;-57
2023/10/11 09:14:58;;;;;;;10.03;4.20;;;21.70;64.40;;;;;;5093214;28;20913;-58
2023/10/11 09:17:26;;;;;;;8.83;4.50;;;21.80;64.50;;;;;;5093112;28;20486;-58
2023/10/11 09:19:56;;;;;;;10.23;4.57;;;21.80;63.90;;;;;;5093140;28;20509;-58
2023/10/11 09:22:23;;;;;;;9.60;4.63;;;21.80;63.70;;;;;;5093185;28;20425;-57
2023/10/11 09:25:04;;;;;;;7.30;4.63;;;21.90;64.20;;;;;;5093049;28;20435;-58
2023/10/11 09:27:48;;;;;;;12.57;5.10;;;22.10;66.50;;;;;;5093195;28;20858;-58
2023/10/11 09:30:20;;;;;;;13.03;3.93;;;22.10;60.90;;;;;;5093570;28;20471;-58
2023/10/11 09:32:49;;;;;;;9.20;4.10;;;22.30;65.40;;;;;;5093095;28;20467;-58
2023/10/11 09:35:23;;;;;;;8.60;4.60;;;22.40;63.20;;;;;;5092996;28;20538;-58
2023/10/11 09:37:52;;;;;;;12.43;4.50;;;22.40;62.40;;;;;;5093021;28;20424;-58
2023/10/11 09:40:25;;;;;;;10.20;4.27;;;22.50;63.10;;;;;;5092863;28;20555;-58
2023/10/11 09:42:56;;;;;;;10.43;4.50;;;22.50;64.60;;;;;;5095569;28;20484;-57
2023/10/11 09:45:29;;;;;;;16.60;5.93;;;22.50;62.30;;;;;;5096580;28;20432;-57
2023/10/11 09:47:56;;;;;;;13.03;6.10;;;22.50;60.50;;;;;;5096646;28;20432;-58
2023/10/11 09:50:23;;;;;;;11.63;4.20;;;22.50;60.90;;;;;;5096296;28;20965;-58
2023/10/11 09:52:53;;;;;;;8.70;4.97;;;22.50;60.00;;;;;;5096417;28;20483;-58
2023/10/11 09:55:31;;;;;;;21.27;5.60;;;22.60;59.70;;;;;;5096483;28;20444;-57
2023/10/11 09:58:03;;;;;;;8.33;4.67;;;22.70;60.60;;;;;;5096473;28;20435;-57
2023/10/11 10:00:40;;;;;;;11.37;4.70;;;22.80;62.00;;;;;;5096515;28;20467;-57
2023/10/11 10:03:12;;;;;;;15.13;4.43;;;23.00;61.50;;;;;;5096447;28;20869;-58
2023/10/11 10:06:07;;;;;;;9.10;4.53;;;23.30;61.30;;;;;;5096249;28;20452;-58
2023/10/11 10:08:34;;;;;;;11.80;5.13;;;23.60;59.70;;;;;;5088791;28;20451;-58
2023/10/11 10:11:02;;;;;;;13.77;5.40;;;23.90;59.50;;;;;;5096029;28;20456;-58
2023/10/11 10:13:29;;;;;;;8.83;4.20;;;24.10;59.00;;;;;;5095708;28;21000;-58
2023/10/11 10:15:57;;;;;;;10.47;5.20;;;24.20;57.60;;;;;;5096009;28;20439;-57
2023/10/11 10:18:25;;;;;;;7.30;3.73;;;24.20;55.90;;;;;;5095998;28;20438;-58
2023/10/11 10:21:02;;;;;;;17.67;5.27;;;24.30;56.10;;;;;;5095668;28;20464;-57
2023/10/11 10:23:29;;;;;;;13.10;4.53;;;24.50;55.10;;;;;;5095970;28;20443;-58
2023/10/11 10:26:30;;;;;;;14.00;5.70;;;24.70;55.00;;;;;;5095748;28;20534;-58
2023/10/11 10:28:57;;;;;;;15.47;5.40;;;25.00;55.00;;;;;;5033368;28;20462;-58
2023/10/11 10:31:25;;;;;;;17.30;4.70;;;25.10;55.00;;;;;;5033098;28;20849;-58
2023/10/11 10:34:24;;;;;;;17.43;5.00;;;25.30;53.70;;;;;;5061503;28;20484;-58
2023/10/11 10:36:52;;;;;;;14.60;4.73;;;25.40;53.50;;;;;;5095544;28;20424;-58
2023/10/11 10:39:46;;;;;;;7.40;4.70;;;25.60;53.70;;;;;;5095450;28;20458;-58
2023/10/11 10:42:15;;;;;;;14.00;5.00;;;25.60;51.90;;;;;;5095311;28;20435;-58
2023/10/11 10:44:52;;;;;;;11.90;5.17;;;25.50;51.70;;;;;;5095438;28;20452;-58
2023/10/11 10:47:23;;;;;;;12.03;5.70;;;25.50;51.90;;;;;;5095394;28;20480;-57
2023/10/11 10:49:53;;;;;;;10.50;4.57;;;25.60;51.50;;;;;;5095328;28;20881;-58
2023/10/11 10:52:21;;;;;;;7.10;4.30;;;25.50;50.90;;;;;;5095159;28;20529;-58
2023/10/11 10:55:01;;;;;;;8.13;4.67;;;25.60;52.00;;;;;;5094470;28;20435;-58
2023/10/11 10:57:27;;;;;;;12.23;5.47;;;25.60;51.50;;;;;;5095167;28;20428;-57
2023/10/11 10:59:54;;;;;;;10.27;5.43;;;25.90;51.70;;;;;;5095043;28;20494;-58
2023/10/11 11:02:21;;;;;;;9.80;4.53;;;26.10;52.60;;;;;;5095020;28;20447;-58
2023/10/11 11:04:48;;;;;;;11.07;4.43;;;26.40;50.40;;;;;;5094646;28;21004;-58
2023/10/11 11:07:25;;;;;;;12.10;4.87;;;26.60;48.00;;;;;;5095115;28;20539;-58
2023/10/11 11:09:54;;;;;;;14.53;4.13;;;26.90;49.30;;;;;;5094594;28;20554;-58
2023/10/11 11:12:28;;;;;;;17.00;5.03;;;27.10;48.40;;;;;;5094878;28;20566;-58
2023/10/11 11:14:55;;;;;;;11.67;3.80;;;26.90;47.80;;;;;;5094750;28;20967;-58
2023/10/11 11:17:23;;;;;;;8.60;4.43;;;26.50;48.20;;;;;;5094795;28;20799;-58
2023/10/11 11:20:12;;;;;;;10.30;5.07;;;26.20;50.40;;;;;;5094709;28;20460;-58
2023/10/11 11:22:39;;;;;;;17.63;5.70;;;26.10;50.30;;;;;;5094726;28;20428;-58
2023/10/11 11:25:26;;;;;;;17.40;5.50;;;26.20;50.00;;;;;;5094907;28;20455;-57
2023/10/11 11:28:15;;;;;;;18.63;5.07;;;26.30;50.40;;;;;;5094424;28;20424;-58
2023/10/11 11:30:43;;;;;;;11.00;4.67;;;26.40;50.70;;;;;;5094499;28;20477;-58
2023/10/11 11:33:27;;;;;;;10.27;4.33;;;26.70;49.70;;;;;;5094223;28;20476;-58
2023/10/11 11:35:55;;;;;;;8.10;4.77;;;26.70;48.80;;;;;;5094763;28;20429;-58
2023/10/11 11:38:23;;;;;;;10.90;4.43;;;26.90;47.90;;;;;;5094115;28;20953;-58
2023/10/11 11:40:51;;;;;;;12.57;5.10;;;27.30;48.50;;;;;;5094437;28;20555;-58
2023/10/11 11:43:20;;;;;;;7.83;4.47;;;27.70;47.00;;;;;;5094662;28;21031;-57
2023/10/11 11:45:47;;;;;;;14.00;4.90;;;28.20;47.60;;;;;;5094251;28;20452;-61
2023/10/11 11:48:23;;;;;;;12.27;4.70;;;28.40;44.90;;;;;;5094384;28;20858;-58
2023/10/11 11:50:49;;;;;;;10.43;4.93;;;28.70;44.80;;;;;;5094478;28;20521;-58
2023/10/11 11:53:18;;;;;;;16.80;5.90;;;29.00;43.70;;;;;;5094397;28;20479;-58
2023/10/11 11:55:44;;;;;;;9.77;4.90;;;29.00;43.50;;;;;;5094137;28;20248;-58
2023/10/11 11:58:11;;;;;;;7.10;4.70;;;29.10;42.30;;;;;;5094301;28;20447;-58
2023/10/11 12:00:38;;;;;;;13.90;4.10;;;29.30;42.80;;;;;;5094012;28;20500;-58
2023/10/11 12:03:06;;;;;;;12.83;5.00;;;29.30;41.30;;;;;;5094342;28;20440;-58
2023/10/11 12:05:37;;;;;;;12.03;5.13;;;29.10;41.80;;;;;;5093044;28;20450;-57
2023/10/11 12:08:08;;;;;;;8.73;4.37;;;29.10;42.50;;;;;;5094029;28;20427;-58
2023/10/11 12:10:35;;;;;;;15.03;4.67;;;29.00;41.80;;;;;;5093469;28;20533;-58
2023/10/11 12:13:08;;;;;;;12.97;5.20;;;28.90;42.30;;;;;;5093877;28;20501;-58
2023/10/11 12:15:36;;;;;;;12.33;5.30;;;29.20;44.00;;;;;;5093595;28;20775;-58
2023/10/11 12:18:05;;;;;;;15.63;4.90;;;29.50;41.60;;;;;;5093708;28;20816;-58
2023/10/11 12:20:34;;;;;;;11.33;5.53;;;29.70;42.20;;;;;;5093715;28;20483;-57
2023/10/11 12:23:07;;;;;;;11.90;4.77;;;29.80;40.30;;;;;;5093416;28;20439;-56
2023/10/11 12:25:36;;;;;;;7.70;4.73;;;29.90;40.60;;;;;;5093735;28;20424;-56
2023/10/11 12:28:04;;;;;;;7.30;4.50;;;29.80;39.80;;;;;;5093798;28;20447;-56
2023/10/11 12:30:33;;;;;;;14.03;5.07;;;29.90;41.60;;;;;;5093558;28;20469;-56
2023/10/11 12:33:06;;;;;;;11.47;4.80;;;30.20;39.40;;;;;;5093504;28;20579;-56
2023/10/11 12:35:34;;;;;;;19.20;5.90;;;30.30;40.10;;;;;;5093587;28;20420;-56
2023/10/11 12:38:01;;;;;;;16.97;5.20;;;30.30;39.80;;;;;;5093591;28;20466;-56
2023/10/11 12:40:28;;;;;;;16.90;5.33;;;30.30;39.40;;;;;;5093507;28;20470;-56
2023/10/11 12:42:56;;;;;;;6.10;4.00;;;30.60;39.50;;;;;;5093375;28;20523;-57
2023/10/11 12:45:23;;;;;;;14.10;5.80;;;30.80;38.90;;;;;;5093159;28;20821;-56
2023/10/11 12:47:50;;;;;;;13.60;4.87;;;31.20;39.50;;;;;;5092915;28;20891;-56
2023/10/11 12:50:18;;;;;;;14.43;4.90;;;31.40;38.10;;;;;;5093527;28;20534;-56
2023/10/11 12:52:45;;;;;;;14.83;5.07;;;31.10;37.00;;;;;;5093428;28;20490;-56
2023/10/11 12:55:12;;;;;;;15.13;5.27;;;30.90;38.50;;;;;;5093381;28;20517;-56
2023/10/11 12:57:39;;;;;;;13.87;5.37;;;30.90;38.00;;;;;;5093005;28;20963;-56
2023/10/11 13:00:28;;;;;;;21.67;4.53;;;30.60;38.50;;;;;;5093485;28;20459;-57
2023/10/11 13:02:58;;;;;;;23.30;6.13;;;30.50;39.30;;;;;;5093454;28;20523;-56
2023/10/11 13:05:27;;;;;;;13.93;4.53;;;30.80;39.70;;;;;;5093258;28;20438;-56
2023/10/11 13:07:54;;;;;;;13.87;5.00;;;31.10;38.80;;;;;;5093256;28;20548;-56
2023/10/11 13:10:22;;;;;;;13.83;5.23;;;31.10;38.10;;;;;;5092738;28;20573;-56
2023/10/11 13:12:50;;;;;;;9.87;5.10;;;31.00;38.20;;;;;;5093115;28;20517;-56
2023/10/11 13:15:22;;;;;;;15.07;4.97;;;31.20;39.20;;;;;;5093255;28;20455;-56
2023/10/11 13:17:48;;;;;;;14.27;5.80;;;31.70;39.00;;;;;;5095935;28;20522;-57
2023/10/11 13:20:19;;;;;;;11.73;5.07;;;32.00;36.60;;;;;;5097050;28;20541;-56